sensor_id;sensor_type;location;lat;lon;timestamp;P1;durP1;ratioP1;P2;durP2;ratioP2
14187;SDS011;7175;51.978;5.330;2023-07-30T00:00:15;45.80;;;43.00;;
14187;SDS011;7175;51.978;5.330;2023-07-30T00:02:43;44.07;;;41.37;;
14187;SDS011;7175;51.978;5.330;2023-07-30T00:05:14;44.40;;;41.70;;
14187;SDS011;7175;51.978;5.330;2023-07-30T00:07:43;48.73;;;45.83;;
14187;SDS011;7175;51.978;5.330;2023-07-30T00:10:11;49.00;;;46.10;;
14187;SDS011;7175;51.978;5.330;2023-07-30T00:12:39;48.33;;;45.43;;
14187;SDS011;7175;51.978;5.330;2023-07-30T00:15:08;48.20;;;45.30;;
14187;SDS011;7175;51.978;5.330;2023-07-30T00:17:42;50.37;;;47.37;;
14187;SDS011;7175;51.978;5.330;2023-07-30T00:20:12;50.37;;;47.37;;
14187;SDS011;7175;51.978;5.330;2023-07-30T00:22:42;50.47;;;47.37;;
14187;SDS011;7175;51.978;5.330;2023-07-30T00:25:10;52.80;;;49.60;;
14187;SDS011;7175;51.978;5.330;2023-07-30T00:27:39;52.37;;;49.17;;
14187;SDS011;7175;51.978;5.330;2023-07-30T00:30:07;52.67;;;49.47;;
14187;SDS011;7175;51.978;5.330;2023-07-30T00:32:36;53.10;;;49.87;;
14187;SDS011;7175;51.978;5.330;2023-07-30T00:35:10;54.07;;;50.77;;
14187;SDS011;7175;51.978;5.330;2023-07-30T00:37:38;53.13;;;49.87;;
14187;SDS011;7175;51.978;5.330;2023-07-30T00:40:09;54.20;;;50.90;;
14187;SDS011;7175;51.978;5.330;2023-07-30T00:42:39;55.90;;;52.50;;
14187;SDS011;7175;51.978;5.330;2023-07-30T00:45:08;55.33;;;51.93;;
14187;SDS011;7175;51.978;5.330;2023-07-30T00:47:41;57.83;;;54.33;;
14187;SDS011;7175;51.978;5.330;2023-07-30T00:50:10;56.33;;;52.90;;
14187;SDS011;7175;51.978;5.330;2023-07-30T00:52:43;57.67;;;54.17;;
14187;SDS011;7175;51.978;5.330;2023-07-30T00:55:12;59.30;;;55.70;;
14187;SDS011;7175;51.978;5.330;2023-07-30T00:57:44;60.83;;;57.30;;
14187;SDS011;7175;51.978;5.330;2023-07-30T01:00:13;60.10;;;56.60;;
14187;SDS011;7175;51.978;5.330;2023-07-30T01:02:42;62.10;;;58.50;;
14187;SDS011;7175;51.978;5.330;2023-07-30T01:05:11;60.57;;;57.07;;
14187;SDS011;7175;51.978;5.330;2023-07-30T01:07:41;61.07;;;57.50;;
14187;SDS011;7175;51.978;5.330;2023-07-30T01:10:16;62.37;;;58.77;;
14187;SDS011;7175;51.978;5.330;2023-07-30T01:12:45;62.67;;;59.07;;
14187;SDS011;7175;51.978;5.330;2023-07-30T01:15:15;64.10;;;60.40;;
14187;SDS011;7175;51.978;5.330;2023-07-30T01:17:45;64.43;;;60.73;;
14187;SDS011;7175;51.978;5.330;2023-07-30T01:20:14;68.47;;;64.57;;
14187;SDS011;7175;51.978;5.330;2023-07-30T01:22:44;68.40;;;64.50;;
14187;SDS011;7175;51.978;5.330;2023-07-30T01:25:15;66.50;;;62.70;;
14187;SDS011;7175;51.978;5.330;2023-07-30T01:27:44;69.40;;;65.50;;
14187;SDS011;7175;51.978;5.330;2023-07-30T01:30:21;69.53;;;65.63;;
14187;SDS011;7175;51.978;5.330;2023-07-30T01:32:53;72.50;;;68.40;;
14187;SDS011;7175;51.978;5.330;2023-07-30T01:35:26;71.37;;;67.37;;
14187;SDS011;7175;51.978;5.330;2023-07-30T01:37:57;71.40;;;67.40;;
14187;SDS011;7175;51.978;5.330;2023-07-30T01:40:28;71.67;;;67.60;;
14187;SDS011;7175;51.978;5.330;2023-07-30T01:42:59;70.17;;;66.17;;
14187;SDS011;7175;51.978;5.330;2023-07-30T01:45:28;73.40;;;69.20;;
14187;SDS011;7175;51.978;5.330;2023-07-30T01:47:56;74.27;;;70.07;;
14187;SDS011;7175;51.978;5.330;2023-07-30T01:50:25;75.10;;;70.90;;
14187;SDS011;7175;51.978;5.330;2023-07-30T01:52:54;78.13;;;73.73;;
14187;SDS011;7175;51.978;5.330;2023-07-30T01:55:23;81.60;;;77.00;;
14187;SDS011;7175;51.978;5.330;2023-07-30T01:57:53;82.77;;;78.17;;
14187;SDS011;7175;51.978;5.330;2023-07-30T02:00:22;85.00;;;80.20;;
14187;SDS011;7175;51.978;5.330;2023-07-30T02:02:50;87.40;;;82.50;;
14187;SDS011;7175;51.978;5.330;2023-07-30T02:05:19;90.63;;;85.63;;
14187;SDS011;7175;51.978;5.330;2023-07-30T02:07:48;91.67;;;86.57;;
14187;SDS011;7175;51.978;5.330;2023-07-30T02:10:18;94.27;;;89.07;;
14187;SDS011;7175;51.978;5.330;2023-07-30T02:12:48;96.07;;;90.77;;
14187;SDS011;7175;51.978;5.330;2023-07-30T02:15:19;92.80;;;87.40;;
14187;SDS011;7175;51.978;5.330;2023-07-30T02:17:47;95.03;;;89.53;;
14187;SDS011;7175;51.978;5.330;2023-07-30T02:20:16;97.20;;;91.60;;
14187;SDS011;7175;51.978;5.330;2023-07-30T02:22:45;100.20;;;94.40;;
14187;SDS011;7175;51.978;5.330;2023-07-30T02:25:13;102.53;;;96.63;;
14187;SDS011;7175;51.978;5.330;2023-07-30T02:27:41;101.80;;;95.90;;
14187;SDS011;7175;51.978;5.330;2023-07-30T02:30:11;105.67;;;99.53;;
14187;SDS011;7175;51.978;5.330;2023-07-30T02:32:42;105.00;;;98.80;;
14187;SDS011;7175;51.978;5.330;2023-07-30T02:35:11;106.87;;;100.47;;
14187;SDS011;7175;51.978;5.330;2023-07-30T02:37:39;108.43;;;101.93;;
14187;SDS011;7175;51.978;5.330;2023-07-30T02:40:08;109.43;;;102.83;;
14187;SDS011;7175;51.978;5.330;2023-07-30T02:42:37;110.77;;;104.07;;
14187;SDS011;7175;51.978;5.330;2023-07-30T02:45:06;112.87;;;106.07;;
14187;SDS011;7175;51.978;5.330;2023-07-30T02:47:36;111.77;;;105.00;;
14187;SDS011;7175;51.978;5.330;2023-07-30T02:50:05;116.93;;;110.23;;
14187;SDS011;7175;51.978;5.330;2023-07-30T02:52:34;114.87;;;108.17;;
14187;SDS011;7175;51.978;5.330;2023-07-30T02:55:03;117.40;;;110.60;;
14187;SDS011;7175;51.978;5.330;2023-07-30T02:57:32;118.37;;;111.47;;
14187;SDS011;7175;51.978;5.330;2023-07-30T03:00:00;119.40;;;112.47;;
14187;SDS011;7175;51.978;5.330;2023-07-30T03:02:30;118.30;;;111.30;;
14187;SDS011;7175;51.978;5.330;2023-07-30T03:05:03;115.93;;;108.93;;
14187;SDS011;7175;51.978;5.330;2023-07-30T03:07:32;117.13;;;110.00;;
14187;SDS011;7175;51.978;5.330;2023-07-30T03:10:00;119.27;;;112.07;;
14187;SDS011;7175;51.978;5.330;2023-07-30T03:12:29;121.10;;;113.60;;
14187;SDS011;7175;51.978;5.330;2023-07-30T03:14:57;118.90;;;111.40;;
14187;SDS011;7175;51.978;5.330;2023-07-30T03:17:26;121.37;;;113.67;;
14187;SDS011;7175;51.978;5.330;2023-07-30T03:19:56;122.83;;;115.03;;
14187;SDS011;7175;51.978;5.330;2023-07-30T03:22:25;122.50;;;114.60;;
14187;SDS011;7175;51.978;5.330;2023-07-30T03:24:54;125.93;;;117.73;;
14187;SDS011;7175;51.978;5.330;2023-07-30T03:27:24;127.43;;;118.97;;
14187;SDS011;7175;51.978;5.330;2023-07-30T03:29:53;125.70;;;117.33;;
14187;SDS011;7175;51.978;5.330;2023-07-30T03:32:21;127.63;;;119.03;;
14187;SDS011;7175;51.978;5.330;2023-07-30T03:34:49;126.20;;;117.57;;
14187;SDS011;7175;51.978;5.330;2023-07-30T03:37:18;127.30;;;118.40;;
14187;SDS011;7175;51.978;5.330;2023-07-30T03:39:48;129.17;;;120.17;;
14187;SDS011;7175;51.978;5.330;2023-07-30T03:42:16;129.07;;;119.97;;
14187;SDS011;7175;51.978;5.330;2023-07-30T03:44:45;129.00;;;119.90;;
14187;SDS011;7175;51.978;5.330;2023-07-30T03:47:14;134.93;;;125.53;;
14187;SDS011;7175;51.978;5.330;2023-07-30T03:49:43;133.33;;;124.10;;
14187;SDS011;7175;51.978;5.330;2023-07-30T03:52:11;131.93;;;122.67;;
14187;SDS011;7175;51.978;5.330;2023-07-30T03:54:51;135.90;;;126.30;;
14187;SDS011;7175;51.978;5.330;2023-07-30T03:57:19;134.23;;;124.73;;
14187;SDS011;7175;51.978;5.330;2023-07-30T03:59:47;139.87;;;130.10;;
14187;SDS011;7175;51.978;5.330;2023-07-30T04:02:16;137.20;;;127.53;;
14187;SDS011;7175;51.978;5.330;2023-07-30T04:04:46;133.23;;;123.77;;
14187;SDS011;7175;51.978;5.330;2023-07-30T04:07:16;133.37;;;123.97;;
14187;SDS011;7175;51.978;5.330;2023-07-30T04:09:47;132.07;;;122.77;;
14187;SDS011;7175;51.978;5.330;2023-07-30T04:12:17;133.67;;;124.17;;
14187;SDS011;7175;51.978;5.330;2023-07-30T04:14:48;133.40;;;123.20;;
14187;SDS011;7175;51.978;5.330;2023-07-30T04:17:16;130.17;;;119.93;;
14187;SDS011;7175;51.978;5.330;2023-07-30T04:19:46;129.37;;;119.27;;
14187;SDS011;7175;51.978;5.330;2023-07-30T04:22:14;131.40;;;121.57;;
14187;SDS011;7175;51.978;5.330;2023-07-30T04:24:43;128.83;;;119.03;;
14187;SDS011;7175;51.978;5.330;2023-07-30T04:27:11;131.93;;;122.03;;
14187;SDS011;7175;51.978;5.330;2023-07-30T04:29:40;129.90;;;120.13;;
14187;SDS011;7175;51.978;5.330;2023-07-30T04:32:10;130.23;;;120.47;;
14187;SDS011;7175;51.978;5.330;2023-07-30T04:34:39;129.73;;;120.03;;
14187;SDS011;7175;51.978;5.330;2023-07-30T04:37:10;126.97;;;117.57;;
14187;SDS011;7175;51.978;5.330;2023-07-30T04:39:38;127.47;;;118.07;;
14187;SDS011;7175;51.978;5.330;2023-07-30T04:42:08;126.83;;;117.60;;
14187;SDS011;7175;51.978;5.330;2023-07-30T04:44:41;128.53;;;119.20;;
14187;SDS011;7175;51.978;5.330;2023-07-30T04:47:11;124.10;;;115.20;;
14187;SDS011;7175;51.978;5.330;2023-07-30T04:49:43;121.47;;;112.77;;
14187;SDS011;7175;51.978;5.330;2023-07-30T04:52:12;120.53;;;112.10;;
14187;SDS011;7175;51.978;5.330;2023-07-30T04:54:41;120.30;;;112.10;;
14187;SDS011;7175;51.978;5.330;2023-07-30T04:57:09;117.93;;;110.00;;
14187;SDS011;7175;51.978;5.330;2023-07-30T04:59:38;116.27;;;108.57;;
14187;SDS011;7175;51.978;5.330;2023-07-30T05:02:10;117.53;;;109.83;;
14187;SDS011;7175;51.978;5.330;2023-07-30T05:04:39;114.23;;;106.80;;
14187;SDS011;7175;51.978;5.330;2023-07-30T05:07:07;117.30;;;109.77;;
14187;SDS011;7175;51.978;5.330;2023-07-30T05:09:36;114.70;;;107.50;;
14187;SDS011;7175;51.978;5.330;2023-07-30T05:12:06;109.37;;;102.67;;
14187;SDS011;7175;51.978;5.330;2023-07-30T05:14:37;110.23;;;103.53;;
14187;SDS011;7175;51.978;5.330;2023-07-30T05:17:12;109.30;;;102.70;;
14187;SDS011;7175;51.978;5.330;2023-07-30T05:19:41;107.33;;;100.93;;
14187;SDS011;7175;51.978;5.330;2023-07-30T05:22:09;106.47;;;100.17;;
14187;SDS011;7175;51.978;5.330;2023-07-30T05:24:38;103.17;;;97.00;;
14187;SDS011;7175;51.978;5.330;2023-07-30T05:27:06;99.73;;;93.73;;
14187;SDS011;7175;51.978;5.330;2023-07-30T05:29:35;97.00;;;91.20;;
14187;SDS011;7175;51.978;5.330;2023-07-30T05:32:03;95.77;;;90.03;;
14187;SDS011;7175;51.978;5.330;2023-07-30T05:34:33;95.93;;;90.23;;
14187;SDS011;7175;51.978;5.330;2023-07-30T05:37:02;93.90;;;88.30;;
14187;SDS011;7175;51.978;5.330;2023-07-30T05:39:31;92.87;;;87.37;;
14187;SDS011;7175;51.978;5.330;2023-07-30T05:41:59;92.53;;;87.00;;
14187;SDS011;7175;51.978;5.330;2023-07-30T05:44:29;89.00;;;83.67;;
14187;SDS011;7175;51.978;5.330;2023-07-30T05:46:57;90.57;;;85.17;;
14187;SDS011;7175;51.978;5.330;2023-07-30T05:49:27;88.30;;;82.90;;
14187;SDS011;7175;51.978;5.330;2023-07-30T05:51:59;87.77;;;82.47;;
14187;SDS011;7175;51.978;5.330;2023-07-30T05:54:28;87.67;;;82.37;;
14187;SDS011;7175;51.978;5.330;2023-07-30T05:56:56;86.43;;;81.23;;
14187;SDS011;7175;51.978;5.330;2023-07-30T05:59:25;85.20;;;80.10;;
14187;SDS011;7175;51.978;5.330;2023-07-30T06:01:55;79.90;;;75.10;;
14187;SDS011;7175;51.978;5.330;2023-07-30T06:04:24;76.10;;;71.43;;
14187;SDS011;7175;51.978;5.330;2023-07-30T06:06:53;78.63;;;73.83;;
14187;SDS011;7175;51.978;5.330;2023-07-30T06:09:23;76.00;;;71.30;;
14187;SDS011;7175;51.978;5.330;2023-07-30T06:11:51;73.43;;;68.83;;
14187;SDS011;7175;51.978;5.330;2023-07-30T06:14:20;69.10;;;64.70;;
14187;SDS011;7175;51.978;5.330;2023-07-30T06:16:49;71.00;;;66.50;;
14187;SDS011;7175;51.978;5.330;2023-07-30T06:19:20;67.33;;;63.03;;
14187;SDS011;7175;51.978;5.330;2023-07-30T06:21:49;61.73;;;57.73;;
14187;SDS011;7175;51.978;5.330;2023-07-30T06:24:19;63.37;;;59.27;;
14187;SDS011;7175;51.978;5.330;2023-07-30T06:26:51;61.00;;;57.10;;
14187;SDS011;7175;51.978;5.330;2023-07-30T06:29:19;58.03;;;54.23;;
14187;SDS011;7175;51.978;5.330;2023-07-30T06:31:50;54.80;;;51.20;;
14187;SDS011;7175;51.978;5.330;2023-07-30T06:34:19;60.07;;;56.27;;
14187;SDS011;7175;51.978;5.330;2023-07-30T06:36:47;51.37;;;47.97;;
14187;SDS011;7175;51.978;5.330;2023-07-30T06:39:15;50.70;;;47.40;;
14187;SDS011;7175;51.978;5.330;2023-07-30T06:41:44;49.33;;;46.03;;
14187;SDS011;7175;51.978;5.330;2023-07-30T06:44:16;41.50;;;38.70;;
14187;SDS011;7175;51.978;5.330;2023-07-30T06:46:45;42.17;;;39.37;;
14187;SDS011;7175;51.978;5.330;2023-07-30T06:49:14;39.17;;;36.47;;
14187;SDS011;7175;51.978;5.330;2023-07-30T06:51:44;38.63;;;35.97;;
14187;SDS011;7175;51.978;5.330;2023-07-30T06:54:12;35.90;;;33.40;;
14187;SDS011;7175;51.978;5.330;2023-07-30T06:56:41;33.27;;;30.87;;
14187;SDS011;7175;51.978;5.330;2023-07-30T06:59:09;33.03;;;30.63;;
14187;SDS011;7175;51.978;5.330;2023-07-30T07:01:39;32.83;;;30.43;;
14187;SDS011;7175;51.978;5.330;2023-07-30T07:04:08;31.90;;;29.60;;
14187;SDS011;7175;51.978;5.330;2023-07-30T07:06:36;31.37;;;29.07;;
14187;SDS011;7175;51.978;5.330;2023-07-30T07:09:07;31.47;;;29.17;;
14187;SDS011;7175;51.978;5.330;2023-07-30T07:11:37;31.40;;;29.10;;
14187;SDS011;7175;51.978;5.330;2023-07-30T07:14:07;31.03;;;28.73;;
14187;SDS011;7175;51.978;5.330;2023-07-30T07:16:39;29.40;;;27.20;;
14187;SDS011;7175;51.978;5.330;2023-07-30T07:19:07;29.03;;;26.83;;
14187;SDS011;7175;51.978;5.330;2023-07-30T07:21:36;28.60;;;26.50;;
14187;SDS011;7175;51.978;5.330;2023-07-30T07:24:05;28.57;;;26.47;;
14187;SDS011;7175;51.978;5.330;2023-07-30T07:26:34;28.83;;;26.63;;
14187;SDS011;7175;51.978;5.330;2023-07-30T07:29:03;28.40;;;26.30;;
14187;SDS011;7175;51.978;5.330;2023-07-30T07:31:32;27.77;;;25.67;;
14187;SDS011;7175;51.978;5.330;2023-07-30T07:34:03;27.43;;;25.33;;
14187;SDS011;7175;51.978;5.330;2023-07-30T07:36:31;26.63;;;24.63;;
14187;SDS011;7175;51.978;5.330;2023-07-30T07:38:59;26.57;;;24.57;;
14187;SDS011;7175;51.978;5.330;2023-07-30T07:41:28;26.77;;;24.73;;
14187;SDS011;7175;51.978;5.330;2023-07-30T07:43:58;27.53;;;25.43;;
14187;SDS011;7175;51.978;5.330;2023-07-30T07:46:40;28.00;;;25.90;;
14187;SDS011;7175;51.978;5.330;2023-07-30T07:49:12;26.93;;;24.93;;
14187;SDS011;7175;51.978;5.330;2023-07-30T07:51:40;26.30;;;24.30;;
14187;SDS011;7175;51.978;5.330;2023-07-30T07:54:09;25.57;;;23.57;;
14187;SDS011;7175;51.978;5.330;2023-07-30T07:56:38;24.27;;;22.37;;
14187;SDS011;7175;51.978;5.330;2023-07-30T07:59:07;24.90;;;22.90;;
14187;SDS011;7175;51.978;5.330;2023-07-30T08:01:35;24.60;;;22.60;;
14187;SDS011;7175;51.978;5.330;2023-07-30T08:04:06;23.07;;;21.17;;
14187;SDS011;7175;51.978;5.330;2023-07-30T08:06:37;23.67;;;21.77;;
14187;SDS011;7175;51.978;5.330;2023-07-30T08:09:12;23.60;;;21.60;;
14187;SDS011;7175;51.978;5.330;2023-07-30T08:11:43;22.37;;;20.47;;
14187;SDS011;7175;51.978;5.330;2023-07-30T08:14:11;22.73;;;20.73;;
14187;SDS011;7175;51.978;5.330;2023-07-30T08:16:40;23.23;;;21.23;;
14187;SDS011;7175;51.978;5.330;2023-07-30T08:19:08;22.10;;;20.20;;
14187;SDS011;7175;51.978;5.330;2023-07-30T08:21:42;22.20;;;20.33;;
14187;SDS011;7175;51.978;5.330;2023-07-30T08:24:10;22.37;;;20.57;;
14187;SDS011;7175;51.978;5.330;2023-07-30T08:26:40;22.20;;;20.40;;
14187;SDS011;7175;51.978;5.330;2023-07-30T08:29:10;21.70;;;19.90;;
14187;SDS011;7175;51.978;5.330;2023-07-30T08:31:41;21.67;;;19.87;;
14187;SDS011;7175;51.978;5.330;2023-07-30T08:34:11;21.97;;;20.17;;
14187;SDS011;7175;51.978;5.330;2023-07-30T08:36:39;22.77;;;20.87;;
14187;SDS011;7175;51.978;5.330;2023-07-30T08:39:10;21.53;;;19.73;;
14187;SDS011;7175;51.978;5.330;2023-07-30T08:41:38;22.07;;;20.27;;
14187;SDS011;7175;51.978;5.330;2023-07-30T08:44:07;22.27;;;20.47;;
14187;SDS011;7175;51.978;5.330;2023-07-30T08:46:41;21.40;;;19.70;;
14187;SDS011;7175;51.978;5.330;2023-07-30T08:49:13;21.40;;;19.70;;
14187;SDS011;7175;51.978;5.330;2023-07-30T08:51:46;21.13;;;19.43;;
14187;SDS011;7175;51.978;5.330;2023-07-30T08:54:20;21.30;;;19.60;;
14187;SDS011;7175;51.978;5.330;2023-07-30T08:56:51;21.37;;;19.67;;
14187;SDS011;7175;51.978;5.330;2023-07-30T08:59:22;22.30;;;20.50;;
14187;SDS011;7175;51.978;5.330;2023-07-30T09:01:58;20.93;;;19.23;;
14187;SDS011;7175;51.978;5.330;2023-07-30T09:04:28;20.93;;;19.23;;
14187;SDS011;7175;51.978;5.330;2023-07-30T09:07:04;21.50;;;19.80;;
14187;SDS011;7175;51.978;5.330;2023-07-30T09:09:38;21.97;;;20.17;;
14187;SDS011;7175;51.978;5.330;2023-07-30T09:12:12;21.13;;;19.43;;
14187;SDS011;7175;51.978;5.330;2023-07-30T09:14:46;21.27;;;19.57;;
14187;SDS011;7175;51.978;5.330;2023-07-30T09:17:23;21.27;;;19.57;;
14187;SDS011;7175;51.978;5.330;2023-07-30T09:19:55;21.23;;;19.43;;
14187;SDS011;7175;51.978;5.330;2023-07-30T09:22:28;21.13;;;19.33;;
14187;SDS011;7175;51.978;5.330;2023-07-30T09:25:01;20.57;;;18.87;;
14187;SDS011;7175;51.978;5.330;2023-07-30T09:27:31;20.50;;;18.80;;
14187;SDS011;7175;51.978;5.330;2023-07-30T09:30:04;20.80;;;19.07;;
14187;SDS011;7175;51.978;5.330;2023-07-30T09:32:36;21.07;;;19.37;;
14187;SDS011;7175;51.978;5.330;2023-07-30T09:35:09;20.87;;;19.17;;
14187;SDS011;7175;51.978;5.330;2023-07-30T09:37:43;20.27;;;18.67;;
14187;SDS011;7175;51.978;5.330;2023-07-30T09:40:12;20.37;;;18.77;;
14187;SDS011;7175;51.978;5.330;2023-07-30T09:42:44;21.23;;;19.53;;
14187;SDS011;7175;51.978;5.330;2023-07-30T09:45:18;20.03;;;18.43;;
14187;SDS011;7175;51.978;5.330;2023-07-30T09:47:49;21.13;;;19.43;;
14187;SDS011;7175;51.978;5.330;2023-07-30T09:50:19;21.30;;;19.60;;
14187;SDS011;7175;51.978;5.330;2023-07-30T09:52:55;20.90;;;19.20;;
14187;SDS011;7175;51.978;5.330;2023-07-30T09:55:29;20.67;;;19.07;;
14187;SDS011;7175;51.978;5.330;2023-07-30T09:58:00;21.37;;;19.67;;
14187;SDS011;7175;51.978;5.330;2023-07-30T10:00:32;21.03;;;19.33;;
14187;SDS011;7175;51.978;5.330;2023-07-30T10:03:00;21.67;;;19.87;;
14187;SDS011;7175;51.978;5.330;2023-07-30T10:05:32;21.30;;;19.60;;
14187;SDS011;7175;51.978;5.330;2023-07-30T10:08:05;21.57;;;19.77;;
14187;SDS011;7175;51.978;5.330;2023-07-30T10:10:40;21.20;;;19.50;;
14187;SDS011;7175;51.978;5.330;2023-07-30T10:13:11;21.67;;;19.87;;
14187;SDS011;7175;51.978;5.330;2023-07-30T10:15:41;20.30;;;18.70;;
14187;SDS011;7175;51.978;5.330;2023-07-30T10:18:13;20.50;;;18.90;;
14187;SDS011;7175;51.978;5.330;2023-07-30T10:20:45;21.63;;;19.93;;
14187;SDS011;7175;51.978;5.330;2023-07-30T10:23:30;21.70;;;20.00;;
14187;SDS011;7175;51.978;5.330;2023-07-30T10:26:08;21.53;;;19.83;;
14187;SDS011;7175;51.978;5.330;2023-07-30T10:28:38;21.77;;;20.07;;
14187;SDS011;7175;51.978;5.330;2023-07-30T10:31:10;21.47;;;19.77;;
14187;SDS011;7175;51.978;5.330;2023-07-30T10:33:49;21.97;;;20.27;;
14187;SDS011;7175;51.978;5.330;2023-07-30T10:36:29;21.37;;;19.67;;
14187;SDS011;7175;51.978;5.330;2023-07-30T10:39:12;21.23;;;19.53;;
14187;SDS011;7175;51.978;5.330;2023-07-30T10:41:43;21.23;;;19.60;;
14187;SDS011;7175;51.978;5.330;2023-07-30T10:47:14;20.50;;;18.90;;
14187;SDS011;7175;51.978;5.330;2023-07-30T10:50:02;20.83;;;19.13;;
14187;SDS011;7175;51.978;5.330;2023-07-30T10:52:35;20.67;;;18.97;;
14187;SDS011;7175;51.978;5.330;2023-07-30T10:55:10;20.40;;;18.70;;
14187;SDS011;7175;51.978;5.330;2023-07-30T10:57:39;20.03;;;18.43;;
14187;SDS011;7175;51.978;5.330;2023-07-30T11:00:10;20.50;;;18.90;;
14187;SDS011;7175;51.978;5.330;2023-07-30T11:02:52;20.80;;;19.20;;
14187;SDS011;7175;51.978;5.330;2023-07-30T11:05:25;19.97;;;18.37;;
14187;SDS011;7175;51.978;5.330;2023-07-30T11:07:57;19.77;;;18.17;;
14187;SDS011;7175;51.978;5.330;2023-07-30T11:10:29;19.73;;;18.13;;
14187;SDS011;7175;51.978;5.330;2023-07-30T11:13:01;19.97;;;18.27;;
14187;SDS011;7175;51.978;5.330;2023-07-30T11:15:32;20.13;;;18.43;;
14187;SDS011;7175;51.978;5.330;2023-07-30T11:18:09;20.87;;;19.07;;
14187;SDS011;7175;51.978;5.330;2023-07-30T11:20:41;20.40;;;18.70;;
14187;SDS011;7175;51.978;5.330;2023-07-30T11:23:18;20.13;;;18.53;;
14187;SDS011;7175;51.978;5.330;2023-07-30T11:25:49;20.43;;;18.73;;
14187;SDS011;7175;51.978;5.330;2023-07-30T11:28:30;20.93;;;19.23;;
14187;SDS011;7175;51.978;5.330;2023-07-30T11:31:03;20.97;;;19.30;;
14187;SDS011;7175;51.978;5.330;2023-07-30T11:33:33;21.20;;;19.50;;
14187;SDS011;7175;51.978;5.330;2023-07-30T11:36:10;20.77;;;19.17;;
14187;SDS011;7175;51.978;5.330;2023-07-30T11:38:40;21.47;;;19.77;;
14187;SDS011;7175;51.978;5.330;2023-07-30T11:41:15;21.43;;;19.63;;
14187;SDS011;7175;51.978;5.330;2023-07-30T11:43:46;20.77;;;19.07;;
14187;SDS011;7175;51.978;5.330;2023-07-30T11:46:20;20.47;;;18.80;;
14187;SDS011;7175;51.978;5.330;2023-07-30T11:49:11;21.47;;;19.77;;
14187;SDS011;7175;51.978;5.330;2023-07-30T11:51:43;21.23;;;19.53;;
14187;SDS011;7175;51.978;5.330;2023-07-30T11:54:19;20.77;;;19.07;;
14187;SDS011;7175;51.978;5.330;2023-07-30T11:56:55;20.90;;;19.20;;
14187;SDS011;7175;51.978;5.330;2023-07-30T11:59:25;21.53;;;19.83;;
14187;SDS011;7175;51.978;5.330;2023-07-30T12:01:54;21.33;;;19.53;;
14187;SDS011;7175;51.978;5.330;2023-07-30T12:04:24;20.47;;;18.77;;
14187;SDS011;7175;51.978;5.330;2023-07-30T12:06:55;21.57;;;19.80;;
14187;SDS011;7175;51.978;5.330;2023-07-30T12:09:26;21.93;;;20.13;;
14187;SDS011;7175;51.978;5.330;2023-07-30T12:12:01;22.27;;;20.57;;
14187;SDS011;7175;51.978;5.330;2023-07-30T12:14:44;24.37;;;22.47;;
14187;SDS011;7175;51.978;5.330;2023-07-30T12:17:24;22.90;;;21.10;;
14187;SDS011;7175;51.978;5.330;2023-07-30T12:19:53;23.73;;;21.93;;
14187;SDS011;7175;51.978;5.330;2023-07-30T12:22:35;21.77;;;20.07;;
14187;SDS011;7175;51.978;5.330;2023-07-30T12:25:08;21.67;;;19.87;;
14187;SDS011;7175;51.978;5.330;2023-07-30T12:27:42;21.80;;;20.00;;
14187;SDS011;7175;51.978;5.330;2023-07-30T12:30:12;21.00;;;19.30;;
14187;SDS011;7175;51.978;5.330;2023-07-30T12:32:41;22.20;;;20.50;;
14187;SDS011;7175;51.978;5.330;2023-07-30T12:35:10;21.57;;;19.77;;
14187;SDS011;7175;51.978;5.330;2023-07-30T12:37:41;20.87;;;19.27;;
14187;SDS011;7175;51.978;5.330;2023-07-30T12:40:14;21.57;;;19.87;;
14187;SDS011;7175;51.978;5.330;2023-07-30T12:42:47;20.60;;;19.00;;
14187;SDS011;7175;51.978;5.330;2023-07-30T12:45:23;21.10;;;19.50;;
14187;SDS011;7175;51.978;5.330;2023-07-30T12:47:53;22.13;;;20.43;;
14187;SDS011;7175;51.978;5.330;2023-07-30T12:50:23;21.47;;;19.77;;
14187;SDS011;7175;51.978;5.330;2023-07-30T12:53:02;20.70;;;19.00;;
14187;SDS011;7175;51.978;5.330;2023-07-30T12:55:31;20.23;;;18.53;;
14187;SDS011;7175;51.978;5.330;2023-07-30T12:58:01;20.67;;;18.97;;
14187;SDS011;7175;51.978;5.330;2023-07-30T13:00:37;20.40;;;18.80;;
14187;SDS011;7175;51.978;5.330;2023-07-30T13:03:11;21.00;;;19.30;;
14187;SDS011;7175;51.978;5.330;2023-07-30T13:05:39;20.40;;;18.80;;
14187;SDS011;7175;51.978;5.330;2023-07-30T13:08:09;21.07;;;19.43;;
14187;SDS011;7175;51.978;5.330;2023-07-30T13:10:41;21.17;;;19.47;;
14187;SDS011;7175;51.978;5.330;2023-07-30T13:13:12;21.20;;;19.50;;
14187;SDS011;7175;51.978;5.330;2023-07-30T13:15:45;20.80;;;19.10;;
14187;SDS011;7175;51.978;5.330;2023-07-30T13:18:24;20.50;;;18.90;;
14187;SDS011;7175;51.978;5.330;2023-07-30T13:20:53;21.27;;;19.57;;
14187;SDS011;7175;51.978;5.330;2023-07-30T13:23:22;21.13;;;19.43;;
14187;SDS011;7175;51.978;5.330;2023-07-30T13:25:53;21.07;;;19.37;;
14187;SDS011;7175;51.978;5.330;2023-07-30T13:28:24;20.30;;;18.60;;
14187;SDS011;7175;51.978;5.330;2023-07-30T13:30:54;21.20;;;19.50;;
14187;SDS011;7175;51.978;5.330;2023-07-30T13:33:23;21.70;;;20.00;;
14187;SDS011;7175;51.978;5.330;2023-07-30T13:35:52;20.60;;;18.90;;
14187;SDS011;7175;51.978;5.330;2023-07-30T13:38:21;20.70;;;18.90;;
14187;SDS011;7175;51.978;5.330;2023-07-30T13:40:53;20.40;;;18.70;;
14187;SDS011;7175;51.978;5.330;2023-07-30T13:43:21;20.63;;;18.93;;
14187;SDS011;7175;51.978;5.330;2023-07-30T13:45:52;20.83;;;19.10;;
14187;SDS011;7175;51.978;5.330;2023-07-30T13:48:20;20.63;;;18.93;;
14187;SDS011;7175;51.978;5.330;2023-07-30T13:50:51;21.03;;;19.23;;
14187;SDS011;7175;51.978;5.330;2023-07-30T13:53:19;21.40;;;19.60;;
14187;SDS011;7175;51.978;5.330;2023-07-30T13:55:51;21.40;;;19.70;;
14187;SDS011;7175;51.978;5.330;2023-07-30T13:58:19;21.10;;;19.30;;
14187;SDS011;7175;51.978;5.330;2023-07-30T14:00:48;20.90;;;19.10;;
14187;SDS011;7175;51.978;5.330;2023-07-30T14:03:19;21.30;;;19.60;;
14187;SDS011;7175;51.978;5.330;2023-07-30T14:05:47;20.80;;;19.00;;
14187;SDS011;7175;51.978;5.330;2023-07-30T14:08:15;20.20;;;18.50;;
14187;SDS011;7175;51.978;5.330;2023-07-30T14:10:47;20.43;;;18.73;;
14187;SDS011;7175;51.978;5.330;2023-07-30T14:13:17;20.23;;;18.53;;
14187;SDS011;7175;51.978;5.330;2023-07-30T14:15:47;20.03;;;18.43;;
14187;SDS011;7175;51.978;5.330;2023-07-30T14:18:15;20.17;;;18.47;;
14187;SDS011;7175;51.978;5.330;2023-07-30T14:20:45;19.87;;;18.27;;
14187;SDS011;7175;51.978;5.330;2023-07-30T14:23:17;20.07;;;18.47;;
14187;SDS011;7175;51.978;5.330;2023-07-30T14:25:45;21.00;;;19.30;;
14187;SDS011;7175;51.978;5.330;2023-07-30T14:28:14;20.63;;;18.93;;
14187;SDS011;7175;51.978;5.330;2023-07-30T14:30:45;20.90;;;19.20;;
14187;SDS011;7175;51.978;5.330;2023-07-30T14:33:15;20.47;;;18.77;;
14187;SDS011;7175;51.978;5.330;2023-07-30T14:35:46;20.37;;;18.67;;
14187;SDS011;7175;51.978;5.330;2023-07-30T14:38:15;20.43;;;18.70;;
14187;SDS011;7175;51.978;5.330;2023-07-30T14:40:43;19.60;;;17.90;;
14187;SDS011;7175;51.978;5.330;2023-07-30T14:43:12;19.53;;;17.90;;
14187;SDS011;7175;51.978;5.330;2023-07-30T14:45:40;19.47;;;17.87;;
14187;SDS011;7175;51.978;5.330;2023-07-30T14:48:08;20.03;;;18.43;;
14187;SDS011;7175;51.978;5.330;2023-07-30T14:50:38;20.20;;;18.60;;